sensor_id;sensor_type;location;lat;lon;timestamp;P1;durP1;ratioP1;P2;durP2;ratioP2
20945;SDS011;10632;51.276;7.116;2022-11-15T00:01:15;2.95;;;0.77;;
20945;SDS011;10632;51.276;7.116;2022-11-15T00:03:44;5.50;;;1.05;;
20945;SDS011;10632;51.276;7.116;2022-11-15T00:06:12;2.17;;;0.85;;
20945;SDS011;10632;51.276;7.116;2022-11-15T00:08:39;2.72;;;1.20;;
20945;SDS011;10632;51.276;7.116;2022-11-15T00:11:06;1.15;;;0.68;;
20945;SDS011;10632;51.276;7.116;2022-11-15T00:13:35;1.25;;;0.77;;
20945;SDS011;10632;51.276;7.116;2022-11-15T00:16:03;6.05;;;1.58;;
20945;SDS011;10632;51.276;7.116;2022-11-15T00:18:31;1.95;;;1.23;;
20945;SDS011;10632;51.276;7.116;2022-11-15T00:21:02;1.48;;;0.70;;
20945;SDS011;10632;51.276;7.116;2022-11-15T00:23:32;1.67;;;1.10;;
20945;SDS011;10632;51.276;7.116;2022-11-15T00:25:59;0.75;;;0.57;;
20945;SDS011;10632;51.276;7.116;2022-11-15T00:28:26;2.65;;;1.40;;
20945;SDS011;10632;51.276;7.116;2022-11-15T00:30:53;2.63;;;1.25;;
20945;SDS011;10632;51.276;7.116;2022-11-15T00:33:20;1.90;;;0.60;;
20945;SDS011;10632;51.276;7.116;2022-11-15T00:35:47;1.67;;;0.85;;
20945;SDS011;10632;51.276;7.116;2022-11-15T00:38:14;3.67;;;0.98;;
20945;SDS011;10632;51.276;7.116;2022-11-15T00:40:42;2.80;;;0.88;;
20945;SDS011;10632;51.276;7.116;2022-11-15T00:43:09;2.63;;;0.88;;
20945;SDS011;10632;51.276;7.116;2022-11-15T00:45:36;1.98;;;0.75;;
20945;SDS011;10632;51.276;7.116;2022-11-15T00:48:03;1.13;;;0.68;;
20945;SDS011;10632;51.276;7.116;2022-11-15T00:50:30;2.88;;;1.05;;
20945;SDS011;10632;51.276;7.116;2022-11-15T00:52:57;2.65;;;0.60;;
20945;SDS011;10632;51.276;7.116;2022-11-15T00:55:24;3.00;;;1.02;;
20945;SDS011;10632;51.276;7.116;2022-11-15T00:57:52;1.17;;;0.88;;
20945;SDS011;10632;51.276;7.116;2022-11-15T01:00:21;1.35;;;0.63;;
20945;SDS011;10632;51.276;7.116;2022-11-15T01:02:48;3.08;;;0.85;;
20945;SDS011;10632;51.276;7.116;2022-11-15T01:05:15;5.10;;;1.60;;
20945;SDS011;10632;51.276;7.116;2022-11-15T01:07:42;1.20;;;0.68;;
20945;SDS011;10632;51.276;7.116;2022-11-15T01:10:09;3.15;;;1.10;;
20945;SDS011;10632;51.276;7.116;2022-11-15T01:12:36;2.10;;;0.70;;
20945;SDS011;10632;51.276;7.116;2022-11-15T01:15:05;1.95;;;0.98;;
20945;SDS011;10632;51.276;7.116;2022-11-15T01:17:32;1.83;;;0.70;;
20945;SDS011;10632;51.276;7.116;2022-11-15T01:19:59;1.63;;;1.00;;
20945;SDS011;10632;51.276;7.116;2022-11-15T01:22:26;2.83;;;1.42;;
20945;SDS011;10632;51.276;7.116;2022-11-15T01:24:53;2.00;;;0.85;;
20945;SDS011;10632;51.276;7.116;2022-11-15T01:27:19;1.88;;;1.00;;
20945;SDS011;10632;51.276;7.116;2022-11-15T01:29:46;2.25;;;0.80;;
20945;SDS011;10632;51.276;7.116;2022-11-15T01:32:15;1.52;;;0.80;;
20945;SDS011;10632;51.276;7.116;2022-11-15T01:34:42;2.63;;;1.20;;
20945;SDS011;10632;51.276;7.116;2022-11-15T01:37:09;4.57;;;1.05;;
20945;SDS011;10632;51.276;7.116;2022-11-15T01:39:37;2.55;;;1.25;;
20945;SDS011;10632;51.276;7.116;2022-11-15T01:42:04;2.92;;;0.98;;
20945;SDS011;10632;51.276;7.116;2022-11-15T01:44:36;7.43;;;0.90;;
20945;SDS011;10632;51.276;7.116;2022-11-15T01:47:07;1.50;;;0.90;;
20945;SDS011;10632;51.276;7.116;2022-11-15T01:49:40;2.75;;;1.25;;
20945;SDS011;10632;51.276;7.116;2022-11-15T01:52:15;1.50;;;0.85;;
20945;SDS011;10632;51.276;7.116;2022-11-15T01:54:44;5.25;;;1.13;;
20945;SDS011;10632;51.276;7.116;2022-11-15T01:57:12;5.40;;;1.80;;
20945;SDS011;10632;51.276;7.116;2022-11-15T01:59:40;1.27;;;0.65;;
20945;SDS011;10632;51.276;7.116;2022-11-15T02:02:09;5.55;;;1.27;;
20945;SDS011;10632;51.276;7.116;2022-11-15T02:04:39;3.60;;;1.58;;
20945;SDS011;10632;51.276;7.116;2022-11-15T02:07:08;2.00;;;1.13;;
20945;SDS011;10632;51.276;7.116;2022-11-15T02:09:37;3.22;;;1.45;;
20945;SDS011;10632;51.276;7.116;2022-11-15T02:12:04;2.30;;;0.93;;
20945;SDS011;10632;51.276;7.116;2022-11-15T02:14:36;2.28;;;1.20;;
20945;SDS011;10632;51.276;7.116;2022-11-15T02:17:08;2.83;;;1.13;;
20945;SDS011;10632;51.276;7.116;2022-11-15T02:22:57;1.83;;;0.90;;
20945;SDS011;10632;51.276;7.116;2022-11-15T02:25:40;3.63;;;1.02;;
20945;SDS011;10632;51.276;7.116;2022-11-15T02:31:17;2.53;;;1.10;;
20945;SDS011;10632;51.276;7.116;2022-11-15T02:33:59;3.65;;;1.52;;
20945;SDS011;10632;51.276;7.116;2022-11-15T02:36:34;3.03;;;0.90;;
20945;SDS011;10632;51.276;7.116;2022-11-15T02:39:08;3.13;;;1.13;;
20945;SDS011;10632;51.276;7.116;2022-11-15T02:41:45;1.63;;;0.80;;
20945;SDS011;10632;51.276;7.116;2022-11-15T02:44:16;4.82;;;1.15;;
20945;SDS011;10632;51.276;7.116;2022-11-15T02:46:52;2.38;;;1.13;;
20945;SDS011;10632;51.276;7.116;2022-11-15T02:49:45;1.55;;;1.02;;
20945;SDS011;10632;51.276;7.116;2022-11-15T02:52:15;2.75;;;1.08;;
20945;SDS011;10632;51.276;7.116;2022-11-15T02:54:52;4.20;;;1.00;;
20945;SDS011;10632;51.276;7.116;2022-11-15T02:57:25;2.50;;;0.75;;
20945;SDS011;10632;51.276;7.116;2022-11-15T03:00:03;2.53;;;1.00;;
20945;SDS011;10632;51.276;7.116;2022-11-15T03:05:34;3.17;;;1.38;;
20945;SDS011;10632;51.276;7.116;2022-11-15T03:08:10;2.17;;;0.98;;
20945;SDS011;10632;51.276;7.116;2022-11-15T03:10:45;3.00;;;0.95;;
20945;SDS011;10632;51.276;7.116;2022-11-15T03:13:27;1.95;;;1.15;;
20945;SDS011;10632;51.276;7.116;2022-11-15T03:16:03;2.30;;;1.15;;
20945;SDS011;10632;51.276;7.116;2022-11-15T03:18:37;3.78;;;0.80;;
20945;SDS011;10632;51.276;7.116;2022-11-15T03:21:08;2.78;;;1.23;;
20945;SDS011;10632;51.276;7.116;2022-11-15T03:23:39;2.38;;;0.77;;
20945;SDS011;10632;51.276;7.116;2022-11-15T03:26:11;5.78;;;1.90;;
20945;SDS011;10632;51.276;7.116;2022-11-15T03:28:41;2.00;;;0.95;;
20945;SDS011;10632;51.276;7.116;2022-11-15T03:31:19;2.47;;;1.15;;
20945;SDS011;10632;51.276;7.116;2022-11-15T03:34:10;1.15;;;0.57;;
20945;SDS011;10632;51.276;7.116;2022-11-15T03:36:41;2.78;;;0.80;;
20945;SDS011;10632;51.276;7.116;2022-11-15T03:39:12;0.95;;;0.70;;
20945;SDS011;10632;51.276;7.116;2022-11-15T03:41:59;1.90;;;0.65;;
20945;SDS011;10632;51.276;7.116;2022-11-15T03:44:36;3.63;;;0.90;;
20945;SDS011;10632;51.276;7.116;2022-11-15T03:47:12;4.60;;;1.27;;
20945;SDS011;10632;51.276;7.116;2022-11-15T03:49:58;2.95;;;1.00;;
20945;SDS011;10632;51.276;7.116;2022-11-15T03:52:32;1.42;;;0.85;;
20945;SDS011;10632;51.276;7.116;2022-11-15T03:55:03;2.55;;;1.08;;
20945;SDS011;10632;51.276;7.116;2022-11-15T03:57:34;1.38;;;0.80;;
20945;SDS011;10632;51.276;7.116;2022-11-15T04:00:10;2.60;;;1.23;;
20945;SDS011;10632;51.276;7.116;2022-11-15T04:02:39;3.83;;;1.00;;
20945;SDS011;10632;51.276;7.116;2022-11-15T04:05:19;2.05;;;0.98;;
20945;SDS011;10632;51.276;7.116;2022-11-15T04:07:49;3.58;;;1.00;;
20945;SDS011;10632;51.276;7.116;2022-11-15T04:10:20;1.20;;;0.70;;
20945;SDS011;10632;51.276;7.116;2022-11-15T04:12:50;1.50;;;0.82;;
20945;SDS011;10632;51.276;7.116;2022-11-15T04:15:17;1.45;;;0.68;;
20945;SDS011;10632;51.276;7.116;2022-11-15T04:17:49;3.60;;;1.23;;
20945;SDS011;10632;51.276;7.116;2022-11-15T04:20:20;2.40;;;0.70;;
20945;SDS011;10632;51.276;7.116;2022-11-15T04:23:06;1.65;;;0.55;;
20945;SDS011;10632;51.276;7.116;2022-11-15T04:25:54;2.08;;;0.88;;
20945;SDS011;10632;51.276;7.116;2022-11-15T04:28:22;0.80;;;0.63;;
20945;SDS011;10632;51.276;7.116;2022-11-15T04:30:52;2.97;;;0.82;;
20945;SDS011;10632;51.276;7.116;2022-11-15T04:33:27;1.83;;;0.75;;
20945;SDS011;10632;51.276;7.116;2022-11-15T04:35:56;1.42;;;0.75;;
20945;SDS011;10632;51.276;7.116;2022-11-15T04:38:40;4.20;;;1.10;;
20945;SDS011;10632;51.276;7.116;2022-11-15T04:41:12;2.88;;;1.25;;
20945;SDS011;10632;51.276;7.116;2022-11-15T04:43:44;1.67;;;0.68;;
20945;SDS011;10632;51.276;7.116;2022-11-15T04:46:12;2.13;;;0.88;;
20945;SDS011;10632;51.276;7.116;2022-11-15T04:48:55;6.57;;;1.30;;
20945;SDS011;10632;51.276;7.116;2022-11-15T04:51:27;2.55;;;0.88;;
20945;SDS011;10632;51.276;7.116;2022-11-15T04:53:54;2.42;;;1.00;;
20945;SDS011;10632;51.276;7.116;2022-11-15T04:56:21;1.33;;;0.73;;
20945;SDS011;10632;51.276;7.116;2022-11-15T04:58:48;1.73;;;0.70;;
20945;SDS011;10632;51.276;7.116;2022-11-15T05:01:15;4.78;;;1.27;;
20945;SDS011;10632;51.276;7.116;2022-11-15T05:03:46;1.60;;;1.10;;
20945;SDS011;10632;51.276;7.116;2022-11-15T05:06:32;3.30;;;1.13;;
20945;SDS011;10632;51.276;7.116;2022-11-15T05:09:03;2.38;;;1.25;;
20945;SDS011;10632;51.276;7.116;2022-11-15T05:11:30;1.48;;;0.90;;
20945;SDS011;10632;51.276;7.116;2022-11-15T05:13:59;2.70;;;1.15;;
20945;SDS011;10632;51.276;7.116;2022-11-15T05:16:26;4.07;;;1.00;;
20945;SDS011;10632;51.276;7.116;2022-11-15T05:18:55;2.17;;;0.70;;
20945;SDS011;10632;51.276;7.116;2022-11-15T05:21:22;1.73;;;0.77;;
20945;SDS011;10632;51.276;7.116;2022-11-15T05:23:54;1.73;;;1.23;;
20945;SDS011;10632;51.276;7.116;2022-11-15T05:26:21;2.63;;;1.02;;
20945;SDS011;10632;51.276;7.116;2022-11-15T05:28:55;7.53;;;1.15;;
20945;SDS011;10632;51.276;7.116;2022-11-15T05:31:24;1.38;;;0.90;;
20945;SDS011;10632;51.276;7.116;2022-11-15T05:33:52;1.77;;;0.77;;
20945;SDS011;10632;51.276;7.116;2022-11-15T05:36:22;3.38;;;1.08;;
20945;SDS011;10632;51.276;7.116;2022-11-15T05:38:59;1.90;;;0.90;;
20945;SDS011;10632;51.276;7.116;2022-11-15T05:41:29;1.92;;;0.73;;
20945;SDS011;10632;51.276;7.116;2022-11-15T05:44:03;1.73;;;0.80;;
20945;SDS011;10632;51.276;7.116;2022-11-15T05:46:33;4.88;;;0.77;;
20945;SDS011;10632;51.276;7.116;2022-11-15T05:49:05;1.55;;;0.80;;
20945;SDS011;10632;51.276;7.116;2022-11-15T05:51:38;0.45;;;0.25;;
20945;SDS011;10632;51.276;7.116;2022-11-15T05:54:09;2.72;;;0.90;;
20945;SDS011;10632;51.276;7.116;2022-11-15T05:56:39;1.80;;;0.75;;
20945;SDS011;10632;51.276;7.116;2022-11-15T05:59:08;0.68;;;0.45;;
20945;SDS011;10632;51.276;7.116;2022-11-15T06:01:35;1.73;;;0.60;;
20945;SDS011;10632;51.276;7.116;2022-11-15T06:04:03;1.10;;;0.40;;
20945;SDS011;10632;51.276;7.116;2022-11-15T06:06:30;3.22;;;0.85;;
20945;SDS011;10632;51.276;7.116;2022-11-15T06:09:01;2.08;;;0.57;;
20945;SDS011;10632;51.276;7.116;2022-11-15T06:11:30;2.55;;;0.80;;
20945;SDS011;10632;51.276;7.116;2022-11-15T06:13:59;0.22;;;0.22;;
20945;SDS011;10632;51.276;7.116;2022-11-15T06:16:26;1.25;;;0.40;;
20945;SDS011;10632;51.276;7.116;2022-11-15T06:18:53;1.70;;;0.63;;
20945;SDS011;10632;51.276;7.116;2022-11-15T06:21:20;0.57;;;0.43;;
20945;SDS011;10632;51.276;7.116;2022-11-15T06:23:48;1.42;;;0.60;;
20945;SDS011;10632;51.276;7.116;2022-11-15T06:26:14;1.13;;;0.68;;
20945;SDS011;10632;51.276;7.116;2022-11-15T06:28:43;0.52;;;0.25;;
20945;SDS011;10632;51.276;7.116;2022-11-15T06:31:10;1.25;;;0.65;;
20945;SDS011;10632;51.276;7.116;2022-11-15T06:33:38;1.10;;;0.45;;
20945;SDS011;10632;51.276;7.116;2022-11-15T06:36:06;0.93;;;0.52;;
20945;SDS011;10632;51.276;7.116;2022-11-15T06:38:34;0.63;;;0.40;;
20945;SDS011;10632;51.276;7.116;2022-11-15T06:41:02;0.25;;;0.13;;
20945;SDS011;10632;51.276;7.116;2022-11-15T06:43:30;1.52;;;0.50;;
20945;SDS011;10632;51.276;7.116;2022-11-15T06:45:59;1.05;;;0.55;;
20945;SDS011;10632;51.276;7.116;2022-11-15T06:48:27;2.50;;;0.52;;
20945;SDS011;10632;51.276;7.116;2022-11-15T06:50:55;1.48;;;0.32;;
20945;SDS011;10632;51.276;7.116;2022-11-15T06:53:23;1.15;;;0.55;;
20945;SDS011;10632;51.276;7.116;2022-11-15T06:55:50;0.88;;;0.40;;
20945;SDS011;10632;51.276;7.116;2022-11-15T06:58:17;0.35;;;0.25;;
20945;SDS011;10632;51.276;7.116;2022-11-15T07:00:44;3.53;;;0.60;;
20945;SDS011;10632;51.276;7.116;2022-11-15T07:03:12;1.10;;;0.30;;
20945;SDS011;10632;51.276;7.116;2022-11-15T07:05:49;0.65;;;0.30;;
20945;SDS011;10632;51.276;7.116;2022-11-15T07:08:17;0.50;;;0.28;;
20945;SDS011;10632;51.276;7.116;2022-11-15T07:10:44;0.57;;;0.30;;
20945;SDS011;10632;51.276;7.116;2022-11-15T07:13:11;0.40;;;0.30;;
20945;SDS011;10632;51.276;7.116;2022-11-15T07:15:38;0.65;;;0.40;;
20945;SDS011;10632;51.276;7.116;2022-11-15T07:18:04;1.55;;;0.50;;
20945;SDS011;10632;51.276;7.116;2022-11-15T07:20:33;1.05;;;0.50;;
20945;SDS011;10632;51.276;7.116;2022-11-15T07:23:00;0.35;;;0.30;;
20945;SDS011;10632;51.276;7.116;2022-11-15T07:25:28;0.93;;;0.22;;
20945;SDS011;10632;51.276;7.116;2022-11-15T07:27:55;3.45;;;0.60;;
20945;SDS011;10632;51.276;7.116;2022-11-15T07:30:22;1.33;;;0.30;;
20945;SDS011;10632;51.276;7.116;2022-11-15T07:32:51;1.02;;;0.45;;
20945;SDS011;10632;51.276;7.116;2022-11-15T07:35:19;1.42;;;0.30;;
20945;SDS011;10632;51.276;7.116;2022-11-15T07:37:53;2.17;;;0.52;;
20945;SDS011;10632;51.276;7.116;2022-11-15T07:40:21;0.45;;;0.35;;
20945;SDS011;10632;51.276;7.116;2022-11-15T07:42:48;0.40;;;0.20;;
20945;SDS011;10632;51.276;7.116;2022-11-15T07:45:23;0.85;;;0.40;;
20945;SDS011;10632;51.276;7.116;2022-11-15T07:47:51;0.63;;;0.30;;
20945;SDS011;10632;51.276;7.116;2022-11-15T07:50:19;0.32;;;0.22;;
20945;SDS011;10632;51.276;7.116;2022-11-15T07:52:46;1.65;;;0.35;;
20945;SDS011;10632;51.276;7.116;2022-11-15T07:55:14;0.30;;;0.22;;
20945;SDS011;10632;51.276;7.116;2022-11-15T07:57:41;0.10;;;0.10;;
20945;SDS011;10632;51.276;7.116;2022-11-15T08:00:08;4.13;;;0.40;;
20945;SDS011;10632;51.276;7.116;2022-11-15T08:02:36;0.10;;;0.10;;
20945;SDS011;10632;51.276;7.116;2022-11-15T08:05:03;0.63;;;0.17;;
20945;SDS011;10632;51.276;7.116;2022-11-15T08:07:30;0.43;;;0.30;;
20945;SDS011;10632;51.276;7.116;2022-11-15T08:09:57;0.75;;;0.20;;
20945;SDS011;10632;51.276;7.116;2022-11-15T08:12:27;0.38;;;0.10;;
20945;SDS011;10632;51.276;7.116;2022-11-15T08:14:54;1.67;;;0.38;;
20945;SDS011;10632;51.276;7.116;2022-11-15T08:17:22;2.70;;;0.10;;
20945;SDS011;10632;51.276;7.116;2022-11-15T08:19:49;0.38;;;0.25;;
20945;SDS011;10632;51.276;7.116;2022-11-15T08:22:16;0.65;;;0.30;;
20945;SDS011;10632;51.276;7.116;2022-11-15T08:24:44;1.15;;;0.52;;
20945;SDS011;10632;51.276;7.116;2022-11-15T08:27:11;0.93;;;0.50;;
20945;SDS011;10632;51.276;7.116;2022-11-15T08:29:42;0.57;;;0.20;;
20945;SDS011;10632;51.276;7.116;2022-11-15T08:32:10;0.93;;;0.52;;
20945;SDS011;10632;51.276;7.116;2022-11-15T08:34:37;0.50;;;0.30;;
20945;SDS011;10632;51.276;7.116;2022-11-15T08:37:05;0.52;;;0.28;;
20945;SDS011;10632;51.276;7.116;2022-11-15T08:39:32;0.55;;;0.28;;
20945;SDS011;10632;51.276;7.116;2022-11-15T08:41:59;0.45;;;0.40;;
20945;SDS011;10632;51.276;7.116;2022-11-15T08:44:25;1.52;;;0.57;;
20945;SDS011;10632;51.276;7.116;2022-11-15T08:46:54;0.10;;;0.10;;
20945;SDS011;10632;51.276;7.116;2022-11-15T08:49:21;0.55;;;0.30;;
20945;SDS011;10632;51.276;7.116;2022-11-15T08:51:48;0.30;;;0.10;;
20945;SDS011;10632;51.276;7.116;2022-11-15T08:54:14;1.10;;;0.57;;
20945;SDS011;10632;51.276;7.116;2022-11-15T08:56:41;0.90;;;0.38;;
20945;SDS011;10632;51.276;7.116;2022-11-15T08:59:08;0.70;;;0.32;;
20945;SDS011;10632;51.276;7.116;2022-11-15T09:01:35;0.73;;;0.28;;
20945;SDS011;10632;51.276;7.116;2022-11-15T09:04:03;0.70;;;0.38;;
20945;SDS011;10632;51.276;7.116;2022-11-15T09:06:31;0.50;;;0.20;;
20945;SDS011;10632;51.276;7.116;2022-11-15T09:08:58;0.28;;;0.10;;
20945;SDS011;10632;51.276;7.116;2022-11-15T09:11:26;0.82;;;0.38;;
20945;SDS011;10632;51.276;7.116;2022-11-15T09:13:53;0.30;;;0.20;;
20945;SDS011;10632;51.276;7.116;2022-11-15T09:16:20;0.10;;;0.10;;
20945;SDS011;10632;51.276;7.116;2022-11-15T09:18:47;0.35;;;0.20;;
20945;SDS011;10632;51.276;7.116;2022-11-15T09:21:15;1.80;;;0.73;;
20945;SDS011;10632;51.276;7.116;2022-11-15T09:23:42;0.90;;;0.40;;
20945;SDS011;10632;51.276;7.116;2022-11-15T09:26:09;0.90;;;0.30;;
20945;SDS011;10632;51.276;7.116;2022-11-15T09:28:39;0.30;;;0.20;;
20945;SDS011;10632;51.276;7.116;2022-11-15T09:31:07;0.30;;;0.20;;
20945;SDS011;10632;51.276;7.116;2022-11-15T09:33:34;0.95;;;0.10;;
20945;SDS011;10632;51.276;7.116;2022-11-15T09:36:02;2.42;;;0.30;;
20945;SDS011;10632;51.276;7.116;2022-11-15T09:38:31;0.55;;;0.30;;
20945;SDS011;10632;51.276;7.116;2022-11-15T09:41:08;0.30;;;0.20;;
20945;SDS011;10632;51.276;7.116;2022-11-15T09:43:49;0.47;;;0.20;;
20945;SDS011;10632;51.276;7.116;2022-11-15T09:46:28;0.73;;;0.30;;
20945;SDS011;10632;51.276;7.116;2022-11-15T09:49:01;0.00;;;0.00;;
20945;SDS011;10632;51.276;7.116;2022-11-15T09:51:30;0.15;;;0.08;;
20945;SDS011;10632;51.276;7.116;2022-11-15T09:54:03;0.60;;;0.20;;
20945;SDS011;10632;51.276;7.116;2022-11-15T09:56:36;0.20;;;0.20;;
20945;SDS011;10632;51.276;7.116;2022-11-15T09:59:13;0.65;;;0.20;;
20945;SDS011;10632;51.276;7.116;2022-11-15T10:01:53;0.15;;;0.10;;
20945;SDS011;10632;51.276;7.116;2022-11-15T10:04:27;0.08;;;0.08;;
20945;SDS011;10632;51.276;7.116;2022-11-15T10:06:56;0.70;;;0.10;;
20945;SDS011;10632;51.276;7.116;2022-11-15T10:09:32;0.10;;;0.05;;
20945;SDS011;10632;51.276;7.116;2022-11-15T10:12:05;0.32;;;0.22;;
20945;SDS011;10632;51.276;7.116;2022-11-15T10:14:34;0.10;;;0.08;;
20945;SDS011;10632;51.276;7.116;2022-11-15T10:20:07;0.20;;;0.10;;
20945;SDS011;10632;51.276;7.116;2022-11-15T10:22:44;9.52;;;1.95;;
20945;SDS011;10632;51.276;7.116;2022-11-15T10:25:19;0.75;;;0.35;;
20945;SDS011;10632;51.276;7.116;2022-11-15T10:27:51;0.17;;;0.10;;
20945;SDS011;10632;51.276;7.116;2022-11-15T10:30:20;0.05;;;0.05;;
20945;SDS011;10632;51.276;7.116;2022-11-15T10:32:48;0.00;;;0.00;;
20945;SDS011;10632;51.276;7.116;2022-11-15T10:35:16;0.55;;;0.28;;
20945;SDS011;10632;51.276;7.116;2022-11-15T10:37:48;0.22;;;0.10;;
20945;SDS011;10632;51.276;7.116;2022-11-15T10:40:16;0.00;;;0.00;;
20945;SDS011;10632;51.276;7.116;2022-11-15T10:42:46;0.00;;;0.00;;
20945;SDS011;10632;51.276;7.116;2022-11-15T10:45:22;0.17;;;0.13;;
20945;SDS011;10632;51.276;7.116;2022-11-15T10:47:51;1.58;;;0.30;;
20945;SDS011;10632;51.276;7.116;2022-11-15T10:50:28;1.65;;;0.22;;
20945;SDS011;10632;51.276;7.116;2022-11-15T10:52:59;5.75;;;0.30;;
20945;SDS011;10632;51.276;7.116;2022-11-15T10:55:30;0.90;;;0.20;;
20945;SDS011;10632;51.276;7.116;2022-11-15T10:58:01;1.98;;;0.20;;
20945;SDS011;10632;51.276;7.116;2022-11-15T11:00:35;0.88;;;0.20;;
20945;SDS011;10632;51.276;7.116;2022-11-15T11:03:04;0.40;;;0.20;;
20945;SDS011;10632;51.276;7.116;2022-11-15T11:05:33;1.13;;;0.10;;
20945;SDS011;10632;51.276;7.116;2022-11-15T11:08:05;0.95;;;0.20;;
20945;SDS011;10632;51.276;7.116;2022-11-15T11:10:53;0.00;;;0.00;;
20945;SDS011;10632;51.276;7.116;2022-11-15T11:13:22;0.05;;;0.00;;
20945;SDS011;10632;51.276;7.116;2022-11-15T11:15:51;0.47;;;0.25;;
20945;SDS011;10632;51.276;7.116;2022-11-15T11:18:25;0.10;;;0.00;;
20945;SDS011;10632;51.276;7.116;2022-11-15T11:20:58;0.45;;;0.10;;
20945;SDS011;10632;51.276;7.116;2022-11-15T11:23:35;0.00;;;0.00;;
20945;SDS011;10632;51.276;7.116;2022-11-15T11:26:15;0.17;;;0.10;;
20945;SDS011;10632;51.276;7.116;2022-11-15T11:28:58;0.20;;;0.10;;
20945;SDS011;10632;51.276;7.116;2022-11-15T11:31:35;0.13;;;0.10;;
20945;SDS011;10632;51.276;7.116;2022-11-15T11:34:15;2.30;;;0.25;;
20945;SDS011;10632;51.276;7.116;2022-11-15T11:36:54;0.00;;;0.00;;
20945;SDS011;10632;51.276;7.116;2022-11-15T11:39:29;0.05;;;0.00;;
20945;SDS011;10632;51.276;7.116;2022-11-15T11:42:12;0.38;;;0.10;;
20945;SDS011;10632;51.276;7.116;2022-11-15T11:44:48;0.63;;;0.13;;
20945;SDS011;10632;51.276;7.116;2022-11-15T11:47:28;0.57;;;0.10;;
20945;SDS011;10632;51.276;7.116;2022-11-15T11:49:59;1.00;;;0.40;;
20945;SDS011;10632;51.276;7.116;2022-11-15T11:52:38;1.40;;;0.25;;
20945;SDS011;10632;51.276;7.116;2022-11-15T11:55:13;0.25;;;0.17;;
20945;SDS011;10632;51.276;7.116;2022-11-15T11:57:43;0.00;;;0.00;;
20945;SDS011;10632;51.276;7.116;2022-11-15T12:00:18;0.57;;;0.10;;
20945;SDS011;10632;51.276;7.116;2022-11-15T12:02:52;0.20;;;0.10;;
20945;SDS011;10632;51.276;7.116;2022-11-15T12:05:30;0.00;;;0.00;;
20945;SDS011;10632;51.276;7.116;2022-11-15T12:08:03;0.28;;;0.17;;
20945;SDS011;10632;51.276;7.116;2022-11-15T12:10:41;0.00;;;0.00;;
20945;SDS011;10632;51.276;7.116;2022-11-15T12:13:16;0.28;;;0.15;;
20945;SDS011;10632;51.276;7.116;2022-11-15T12:15:47;0.35;;;0.28;;
20945;SDS011;10632;51.276;7.116;2022-11-15T12:18:19;0.47;;;0.20;;
20945;SDS011;10632;51.276;7.116;2022-11-15T12:20:53;0.15;;;0.10;;
20945;SDS011;10632;51.276;7.116;2022-11-15T12:23:25;0.25;;;0.10;;
20945;SDS011;10632;51.276;7.116;2022-11-15T12:25:57;0.00;;;0.00;;
20945;SDS011;10632;51.276;7.116;2022-11-15T12:28:32;0.55;;;0.00;;
20945;SDS011;10632;51.276;7.116;2022-11-15T12:31:04;0.20;;;0.10;;
20945;SDS011;10632;51.276;7.116;2022-11-15T12:33:38;3.03;;;0.50;;
20945;SDS011;10632;51.276;7.116;2022-11-15T12:36:08;0.73;;;0.10;;
20945;SDS011;10632;51.276;7.116;2022-11-15T12:38:53;0.10;;;0.08;;
20945;SDS011;10632;51.276;7.116;2022-11-15T12:41:23;0.38;;;0.10;;
20945;SDS011;10632;51.276;7.116;2022-11-15T12:43:53;0.00;;;0.00;;
20945;SDS011;10632;51.276;7.116;2022-11-15T12:46:22;0.22;;;0.10;;
20945;SDS011;10632;51.276;7.116;2022-11-15T12:52:12;0.73;;;0.10;;
20945;SDS011;10632;51.276;7.116;2022-11-15T12:54:52;0.10;;;0.10;;
20945;SDS011;10632;51.276;7.116;2022-11-15T12:57:35;0.70;;;0.17;;
20945;SDS011;10632;51.276;7.116;2022-11-15T13:03:23;0.28;;;0.10;;
20945;SDS011;10632;51.276;7.116;2022-11-15T13:05:56;0.10;;;0.10;;
20945;SDS011;10632;51.276;7.116;2022-11-15T13:08:36;0.40;;;0.20;;
20945;SDS011;10632;51.276;7.116;2022-11-15T13:14:34;0.10;;;0.00;;
20945;SDS011;10632;51.276;7.116;2022-11-15T13:17:12;0.65;;;0.30;;
20945;SDS011;10632;51.276;7.116;2022-11-15T13:22:49;0.00;;;0.00;;
20945;SDS011;10632;51.276;7.116;2022-11-15T13:25:16;0.10;;;0.10;;
20945;SDS011;10632;51.276;7.116;2022-11-15T13:27:49;0.57;;;0.10;;
20945;SDS011;10632;51.276;7.116;2022-11-15T13:30:19;0.15;;;0.10;;
20945;SDS011;10632;51.276;7.116;2022-11-15T13:32:47;3.75;;;0.10;;
20945;SDS011;10632;51.276;7.116;2022-11-15T13:35:20;0.10;;;0.10;;
20945;SDS011;10632;51.276;7.116;2022-11-15T13:37:48;0.30;;;0.20;;
20945;SDS011;10632;51.276;7.116;2022-11-15T13:40:20;0.55;;;0.20;;
20945;SDS011;10632;51.276;7.116;2022-11-15T13:42:50;0.55;;;0.13;;
20945;SDS011;10632;51.276;7.116;2022-11-15T13:45:19;0.50;;;0.20;;
20945;SDS011;10632;51.276;7.116;2022-11-15T13:47:50;0.17;;;0.00;;
20945;SDS011;10632;51.276;7.116;2022-11-15T13:50:21;0.20;;;0.00;;
20945;SDS011;10632;51.276;7.116;2022-11-15T13:52:51;0.68;;;0.20;;
20945;SDS011;10632;51.276;7.116;2022-11-15T13:55:20;0.17;;;0.05;;
20945;SDS011;10632;51.276;7.116;2022-11-15T13:57:50;0.52;;;0.20;;
20945;SDS011;10632;51.276;7.116;2022-11-15T14:03:10;0.22;;;0.13;;
20945;SDS011;10632;51.276;7.116;2022-11-15T14:05:46;0.40;;;0.20;;
20945;SDS011;10632;51.276;7.116;2022-11-15T14:08:37;0.50;;;0.20;;
20945;SDS011;10632;51.276;7.116;2022-11-15T14:11:08;0.60;;;0.25;;
20945;SDS011;10632;51.276;7.116;2022-11-15T14:13:39;1.23;;;0.38;;
20945;SDS011;10632;51.276;7.116;2022-11-15T14:16:18;0.68;;;0.20;;
20945;SDS011;10632;51.276;7.116;2022-11-15T14:18:47;0.30;;;0.20;;
20945;SDS011;10632;51.276;7.116;2022-11-15T14:21:16;0.57;;;0.32;;
20945;SDS011;10632;51.276;7.116;2022-11-15T14:23:44;0.70;;;0.17;;
20945;SDS011;10632;51.276;7.116;2022-11-15T14:26:25;1.35;;;0.20;;
20945;SDS011;10632;51.276;7.116;2022-11-15T14:28:54;0.95;;;0.30;;
20945;SDS011;10632;51.276;7.116;2022-11-15T14:31:20;1.45;;;0.43;;
20945;SDS011;10632;51.276;7.116;2022-11-15T14:33:48;0.73;;;0.30;;
20945;SDS011;10632;51.276;7.116;2022-11-15T14:36:18;0.90;;;0.35;;
20945;SDS011;10632;51.276;7.116;2022-11-15T14:38:46;11.30;;;0.60;;
20945;SDS011;10632;51.276;7.116;2022-11-15T14:41:17;2.03;;;0.65;;
20945;SDS011;10632;51.276;7.116;2022-11-15T14:43:46;3.72;;;0.75;;
20945;SDS011;10632;51.276;7.116;2022-11-15T14:46:13;0.68;;;0.30;;
20945;SDS011;10632;51.276;7.116;2022-11-15T14:48:40;1.95;;;0.65;;
20945;SDS011;10632;51.276;7.116;2022-11-15T14:51:11;0.88;;;0.35;;
20945;SDS011;10632;51.276;7.116;2022-11-15T14:53:40;0.57;;;0.40;;
20945;SDS011;10632;51.276;7.116;2022-11-15T14:56:08;2.35;;;0.50;;
20945;SDS011;10632;51.276;7.116;2022-11-15T14:58:35;2.80;;;0.60;;
20945;SDS011;10632;51.276;7.116;2022-11-15T15:01:03;1.10;;;0.45;;
20945;SDS011;10632;51.276;7.116;2022-11-15T15:03:37;0.68;;;0.20;;
20945;SDS011;10632;51.276;7.116;2022-11-15T15:06:04;0.95;;;0.57;;
20945;SDS011;10632;51.276;7.116;2022-11-15T15:08:31;0.60;;;0.47;;
20945;SDS011;10632;51.276;7.116;2022-11-15T15:10:59;0.70;;;0.32;;
20945;SDS011;10632;51.276;7.116;2022-11-15T15:13:29;0.47;;;0.30;;
20945;SDS011;10632;51.276;7.116;2022-11-15T15:15:56;0.47;;;0.20;;
20945;SDS011;10632;51.276;7.116;2022-11-15T15:18:22;0.85;;;0.40;;
20945;SDS011;10632;51.276;7.116;2022-11-15T15:20:53;0.10;;;0.10;;
20945;SDS011;10632;51.276;7.116;2022-11-15T15:23:25;1.35;;;0.45;;
20945;SDS011;10632;51.276;7.116;2022-11-15T15:25:54;1.27;;;0.30;;
20945;SDS011;10632;51.276;7.116;2022-11-15T15:28:22;1.00;;;0.45;;
20945;SDS011;10632;51.276;7.116;2022-11-15T15:30:49;1.80;;;0.40;;
20945;SDS011;10632;51.276;7.116;2022-11-15T15:33:17;0.63;;;0.28;;
20945;SDS011;10632;51.276;7.116;2022-11-15T15:35:44;0.77;;;0.20;;
20945;SDS011;10632;51.276;7.116;2022-11-15T15:38:11;1.13;;;0.40;;